createdAt,value
2022-09-04T00:02:30.881Z,63.69
2022-09-04T00:05:22.797Z,64.29
2022-09-04T00:08:25.444Z,64.64
2022-09-04T00:11:07.333Z,64.30
2022-09-04T00:13:57.463Z,64.51
2022-09-04T00:17:14.702Z,64.33
2022-09-04T00:19:59.788Z,64.91
2022-09-04T00:23:15.025Z,64.58
2022-09-04T00:26:20.856Z,65.02
2022-09-04T00:29:05.579Z,65.01
2022-09-04T00:31:50.652Z,64.94
2022-09-04T00:35:12.058Z,64.64
2022-09-04T00:38:11.838Z,65.07
2022-09-04T00:41:02.542Z,65.43
2022-09-04T00:44:35.786Z,65.85
2022-09-04T00:47:48.917Z,66.10
2022-09-04T00:50:54.996Z,66.18
2022-09-04T00:53:52.032Z,66.03
2022-09-04T00:57:02.214Z,66.39
2022-09-04T01:00:21.339Z,66.83
2022-09-04T01:03:42.584Z,66.77
2022-09-04T01:06:54.152Z,67.58
2022-09-04T01:09:47.899Z,67.79
2022-09-04T01:12:58.505Z,67.56
2022-09-04T01:15:45.180Z,67.63
2022-09-04T01:18:51.966Z,68.12
2022-09-04T01:21:40.157Z,68.76
2022-09-04T01:24:42.070Z,69.03
2022-09-04T01:27:56.672Z,69.02
2022-09-04T01:30:24.148Z,68.97
2022-09-04T01:33:24.016Z,69.49
2022-09-04T01:36:49.533Z,69.40
2022-09-04T01:39:26.197Z,69.76
2022-09-04T01:42:23.633Z,69.64
2022-09-04T01:44:50.710Z,70.28
2022-09-04T01:47:30.939Z,70.31
2022-09-04T01:50:22.175Z,70.54
2022-09-04T01:53:14.544Z,70.52
2022-09-04T01:56:29.735Z,70.87
2022-09-04T01:59:26.427Z,70.77
2022-09-04T02:02:41.356Z,71.20
2022-09-04T02:05:43.136Z,71.75
2022-09-04T02:08:55.306Z,70.47
2022-09-04T02:11:29.848Z,71.18
2022-09-04T02:14:24.402Z,70.83
2022-09-04T02:17:21.150Z,70.99
2022-09-04T02:20:17.072Z,71.02
2022-09-04T02:23:14.461Z,71.66
2022-09-04T02:26:19.419Z,72.16
2022-09-04T02:29:28.203Z,71.64
2022-09-04T02:32:19.427Z,71.48
2022-09-04T02:35:16.096Z,72.25
2022-09-04T02:38:26.333Z,71.76
2022-09-04T02:40:56.190Z,71.79
2022-09-04T02:43:43.714Z,71.87
2022-09-04T02:46:51.120Z,71.16
2022-09-04T02:49:51.988Z,71.45
2022-09-04T02:53:21.100Z,71.02
2022-09-04T02:56:46.608Z,71.11
2022-09-04T02:59:43.068Z,71.47
2022-09-04T03:02:38.742Z,71.56
2022-09-04T03:05:42.265Z,71.26
2022-09-04T03:08:24.307Z,70.90
2022-09-04T03:11:26.949Z,71.14
2022-09-04T03:14:39.052Z,70.72
2022-09-04T03:17:30.029Z,70.27
2022-09-04T03:20:33.743Z,69.84
2022-09-04T03:23:25.787Z,70.02
2022-09-04T03:26:01.648Z,70.72
2022-09-04T03:29:11.918Z,70.15
2022-09-04T03:32:15.864Z,70.85
2022-09-04T03:35:26.397Z,70.47
2022-09-04T03:38:34.108Z,70.76
2022-09-04T03:41:45.981Z,69.90
2022-09-04T03:44:54.837Z,69.83
2022-09-04T03:48:09.394Z,69.75
2022-09-04T03:51:01.417Z,70.62
2022-09-04T03:53:59.383Z,71.07
2022-09-04T03:57:19.933Z,71.30
2022-09-04T04:00:12.728Z,71.41
2022-09-04T04:03:19.628Z,71.01
2022-09-04T04:06:23.732Z,72.10
2022-09-04T04:09:47.451Z,71.92
2022-09-04T04:12:59.250Z,72.33
2022-09-04T04:15:37.955Z,71.75
2022-09-04T04:18:54.330Z,71.77
2022-09-04T04:22:13.691Z,71.57
2022-09-04T04:25:42.559Z,72.54
2022-09-04T04:29:02.812Z,73.11
2022-09-04T04:32:10.678Z,73.11
2022-09-04T04:35:26.317Z,73.19
2022-09-04T04:38:24.874Z,73.03
2022-09-04T04:41:30.899Z,73.62
2022-09-04T04:44:45.711Z,73.59
2022-09-04T04:48:00.456Z,73.53
2022-09-04T04:51:05.374Z,74.14
2022-09-04T04:54:34.711Z,74.02
2022-09-04T04:57:27.660Z,73.25
2022-09-04T05:00:37.199Z,74.28
2022-09-04T05:03:54.014Z,72.75
2022-09-04T05:07:52.789Z,72.27
2022-09-04T05:10:41.173Z,72.43
2022-09-04T05:13:41.705Z,73.15
2022-09-04T05:16:58.404Z,72.98
2022-09-04T05:20:15.394Z,73.08
2022-09-04T05:23:29.177Z,73.60
2022-09-04T05:26:19.441Z,73.14
2022-09-04T05:29:47.526Z,73.10
2022-09-04T05:32:37.638Z,73.74
2022-09-04T05:35:41.021Z,72.44
2022-09-04T05:38:30.628Z,72.79
2022-09-04T05:41:19.562Z,71.69
2022-09-04T05:44:31.067Z,71.98
2022-09-04T05:47:47.841Z,71.78
2022-09-04T05:50:46.658Z,71.69
2022-09-04T05:54:02.643Z,71.91
2022-09-04T05:57:29.686Z,73.48
2022-09-04T06:00:13.398Z,72.51
2022-09-04T06:03:12.527Z,72.44
2022-09-04T06:06:10.221Z,71.95
2022-09-04T06:09:58.636Z,71.62
2022-09-04T06:12:49.569Z,71.66
2022-09-04T06:16:08.116Z,69.99
2022-09-04T06:19:15.035Z,69.94
2022-09-04T06:22:40.716Z,70.29
2022-09-04T06:25:59.880Z,67.04
2022-09-04T06:29:14.875Z,66.65
2022-09-04T06:32:22.445Z,66.44
2022-09-04T06:35:15.792Z,65.10
2022-09-04T06:38:09.518Z,67.06
2022-09-04T06:41:22.838Z,64.46
2022-09-04T06:44:16.312Z,63.91
2022-09-04T06:46:57.697Z,64.77
2022-09-04T06:50:08.549Z,65.20
2022-09-04T06:53:16.326Z,63.77
2022-09-04T06:56:35.989Z,62.80
2022-09-04T06:59:42.040Z,64.63
2022-09-04T07:02:31.245Z,61.68
2022-09-04T07:05:13.758Z,61.49
2022-09-04T07:08:18.515Z,62.89
2022-09-04T07:10:59.592Z,64.54
2022-09-04T07:14:45.267Z,61.80
2022-09-04T07:17:37.739Z,62.54
2022-09-04T07:20:43.517Z,64.80
2022-09-04T07:23:46.154Z,62.85
2022-09-04T07:26:58.566Z,64.63
2022-09-04T07:29:41.679Z,62.65
2022-09-04T07:32:26.761Z,63.75
2022-09-04T07:35:30.148Z,63.52
2022-09-04T07:38:21.959Z,62.89
2022-09-04T07:41:02.549Z,63.28
2022-09-04T07:43:54.697Z,61.42
2022-09-04T07:46:57.541Z,61.66
2022-09-04T07:50:15.926Z,59.56
2022-09-04T07:53:19.912Z,61.50
2022-09-04T07:56:02.046Z,61.14
2022-09-04T07:58:56.766Z,59.59
2022-09-04T08:02:27.831Z,61.52
2022-09-04T08:05:37.049Z,58.52
2022-09-04T08:08:28.644Z,59.09
2022-09-04T08:11:35.199Z,59.66
2022-09-04T08:14:52.082Z,59.60
2022-09-04T08:17:46.083Z,58.68
2022-09-04T08:20:56.854Z,60.48
2022-09-04T08:23:54.634Z,60.75
2022-09-04T08:27:00.802Z,58.40
2022-09-04T08:30:10.344Z,57.82
2022-09-04T08:33:28.363Z,57.62
2022-09-04T08:36:31.593Z,57.58
2022-09-04T08:39:52.343Z,59.36
2022-09-04T08:42:59.583Z,58.21
2022-09-04T08:46:32.286Z,57.41
2022-09-04T08:49:11.683Z,57.33
2022-09-04T08:52:44.769Z,58.60
2022-09-04T08:55:32.658Z,58.27
2022-09-04T08:58:49.408Z,54.22
2022-09-04T09:02:10.490Z,53.96
2022-09-04T09:05:23.118Z,55.46
2022-09-04T09:08:49.934Z,55.29
2022-09-04T09:12:40.695Z,53.40
2022-09-04T09:15:50.952Z,54.08
2022-09-04T09:19:10.254Z,54.85
2022-09-04T09:22:27.880Z,53.37
2022-09-04T09:26:02.979Z,52.64
2022-09-04T09:29:26.831Z,53.18
2022-09-04T09:32:37.510Z,50.11
2022-09-04T09:36:07.636Z,52.64
2022-09-04T09:39:25.692Z,51.27
2022-09-04T09:42:20.075Z,50.97
2022-09-04T09:45:27.399Z,52.20
2022-09-04T09:48:31.467Z,51.49
2022-09-04T09:52:11.526Z,51.38
2022-09-04T09:55:26.314Z,49.87
2022-09-04T09:58:36.038Z,50.75
2022-09-04T10:01:51.289Z,50.10
2022-09-04T10:05:13.746Z,49.52
2022-09-04T10:08:35.542Z,49.80
2022-09-04T10:11:29.233Z,49.27
2022-09-04T10:14:31.885Z,48.64
2022-09-04T10:17:19.589Z,49.03
2022-09-04T10:20:30.074Z,50.05
2022-09-04T10:23:06.919Z,48.81
2022-09-04T10:26:16.194Z,50.16
2022-09-04T10:29:28.799Z,46.84
2022-09-04T10:32:25.625Z,46.99
2022-09-04T10:35:25.400Z,46.15
2022-09-04T10:38:38.392Z,47.63
2022-09-04T10:41:49.933Z,46.39
2022-09-04T10:45:15.876Z,44.18
2022-09-04T10:48:28.639Z,44.18
2022-09-04T10:52:05.655Z,45.46
2022-09-04T10:54:46.381Z,45.21
2022-09-04T10:58:17.219Z,45.76
2022-09-04T11:01:42.732Z,45.86
2022-09-04T11:05:02.630Z,45.81
2022-09-04T11:08:28.684Z,46.88
2022-09-04T11:11:52.964Z,45.54
2022-09-04T11:15:25.244Z,44.89
2022-09-04T11:18:33.108Z,45.92
2022-09-04T11:22:20.465Z,45.72
2022-09-04T11:25:04.335Z,45.59
2022-09-04T11:33:05.076Z,46.17
2022-09-04T11:36:08.047Z,44.60
2022-09-04T11:39:05.053Z,45.91
2022-09-04T11:42:27.732Z,43.59
2022-09-04T11:46:06.699Z,44.22
2022-09-04T11:49:18.866Z,45.65
2022-09-04T11:52:31.303Z,44.87
2022-09-04T11:55:09.965Z,46.26
2022-09-04T11:58:09.981Z,44.63
2022-09-04T12:01:22.825Z,44.48
2022-09-04T12:04:23.266Z,44.37
2022-09-04T12:07:19.533Z,44.69
2022-09-04T12:10:19.748Z,45.34
2022-09-04T12:13:47.615Z,44.08
2022-09-04T12:16:52.785Z,43.17
2022-09-04T12:19:55.102Z,43.95
2022-09-04T12:23:19.199Z,43.78
2022-09-04T12:26:51.217Z,43.31
2022-09-04T12:29:40.042Z,43.86
2022-09-04T12:32:45.120Z,42.58
2022-09-04T12:35:39.447Z,43.00
2022-09-04T12:38:47.334Z,41.96
2022-09-04T12:41:49.225Z,40.99
2022-09-04T12:44:53.561Z,41.42
2022-09-04T12:47:41.208Z,43.67
2022-09-04T12:50:33.429Z,41.44
2022-09-04T12:54:00.053Z,41.69
2022-09-04T12:57:55.768Z,39.80
2022-09-04T13:00:40.794Z,40.17
2022-09-04T13:03:59.922Z,40.95
2022-09-04T13:07:15.956Z,40.36
2022-09-04T13:10:33.040Z,43.09
2022-09-04T13:14:23.518Z,40.95
2022-09-04T13:17:30.152Z,42.03
2022-09-04T13:20:26.486Z,42.83
2022-09-04T13:23:46.806Z,39.64
2022-09-04T13:26:47.194Z,40.45
2022-09-04T13:30:03.275Z,40.32
2022-09-04T13:32:55.481Z,39.23
2022-09-04T13:36:19.216Z,39.62
2022-09-04T13:39:27.950Z,39.69
2022-09-04T13:42:26.162Z,39.09
2022-09-04T13:45:23.477Z,37.75
2022-09-04T13:48:32.752Z,37.78
2022-09-04T13:51:37.590Z,36.79
2022-09-04T13:54:37.061Z,37.71
2022-09-04T13:57:28.072Z,37.33
2022-09-04T14:00:07.733Z,38.43
2022-09-04T14:02:39.251Z,37.47
2022-09-04T14:05:33.305Z,37.63
2022-09-04T14:08:08.929Z,38.00
2022-09-04T14:11:11.046Z,37.43
2022-09-04T14:14:41.270Z,36.89
2022-09-04T14:17:12.058Z,37.45
2022-09-04T14:20:48.431Z,37.73
2022-09-04T14:23:48.478Z,35.63
2022-09-04T14:26:24.601Z,36.39
2022-09-04T14:29:36.274Z,35.88
2022-09-04T14:33:07.475Z,34.78
2022-09-04T14:36:35.531Z,34.67
2022-09-04T14:39:15.984Z,36.52
2022-09-04T14:42:32.020Z,34.64
2022-09-04T14:45:25.777Z,33.41
2022-09-04T14:48:06.854Z,32.57
2022-09-04T14:50:55.813Z,33.61
2022-09-04T14:53:36.014Z,32.83
2022-09-04T14:56:12.014Z,34.00
2022-09-04T14:59:34.299Z,32.36
2022-09-04T15:02:08.697Z,32.45
2022-09-04T15:05:07.498Z,31.48
2022-09-04T15:07:43.132Z,32.18
2022-09-04T15:10:50.982Z,31.96
2022-09-04T15:13:31.479Z,32.06
2022-09-04T15:16:09.925Z,31.26
2022-09-04T15:19:56.489Z,31.94
2022-09-04T15:23:07.599Z,32.12
2022-09-04T15:26:03.014Z,32.29
2022-09-04T15:28:51.649Z,32.71
2022-09-04T15:31:42.146Z,34.12
2022-09-04T15:34:24.213Z,32.41
2022-09-04T15:36:51.712Z,34.20
2022-09-04T15:39:54.799Z,33.26
2022-09-04T15:42:56.758Z,33.93
2022-09-04T15:45:54.120Z,33.78
2022-09-04T15:49:17.402Z,34.86
2022-09-04T15:52:44.344Z,36.04
2022-09-04T15:55:30.720Z,36.12
2022-09-04T15:58:36.389Z,36.98
2022-09-04T16:01:06.520Z,37.92
2022-09-04T16:04:33.358Z,38.96
2022-09-04T16:07:36.927Z,38.95
2022-09-04T16:10:24.687Z,40.69
2022-09-04T16:13:32.922Z,39.51
2022-09-04T16:16:46.631Z,39.87
2022-09-04T16:19:59.991Z,40.36
2022-09-04T16:23:12.216Z,41.81
2022-09-04T16:25:50.415Z,41.44
2022-09-04T16:28:34.868Z,41.74
2022-09-04T16:31:23.050Z,41.64
2022-09-04T16:34:02.112Z,42.47
2022-09-04T16:36:40.245Z,43.00
2022-09-04T16:39:43.692Z,43.03
2022-09-04T16:42:46.321Z,43.56
2022-09-04T16:45:55.501Z,43.23
2022-09-04T16:48:48.652Z,44.44
2022-09-04T16:51:57.831Z,44.10
2022-09-04T16:54:49.251Z,45.80
2022-09-04T16:57:33.298Z,44.78
2022-09-04T17:00:14.321Z,44.58
2022-09-04T17:02:53.547Z,44.51
2022-09-04T17:05:51.397Z,43.86
2022-09-04T17:09:24.367Z,47.12
2022-09-04T17:12:20.627Z,45.54
2022-09-04T17:15:29.425Z,46.55
2022-09-04T17:17:59.457Z,47.31
2022-09-04T17:22:34.757Z,48.46
2022-09-04T17:28:58.917Z,47.64
2022-09-04T17:29:13.812Z,49.13
2022-09-04T17:30:07.662Z,47.77
2022-09-04T17:38:09.063Z,50.01
2022-09-04T17:40:41.220Z,49.65
2022-09-04T17:40:52.440Z,52.04
2022-09-04T17:43:22.361Z,53.08
2022-09-04T17:46:15.999Z,53.78
2022-09-04T17:48:46.364Z,54.88
2022-09-04T17:51:33.803Z,56.34
2022-09-04T17:54:14.373Z,57.27
2022-09-04T17:56:59.858Z,57.77
2022-09-04T18:00:06.870Z,57.90
2022-09-04T18:02:59.537Z,59.06
2022-09-04T18:05:53.840Z,59.77
2022-09-04T18:08:55.625Z,61.52
2022-09-04T18:12:00.140Z,62.20
2022-09-04T18:15:32.262Z,63.02
2022-09-04T18:18:18.323Z,62.97
2022-09-04T18:21:12.261Z,63.82
2022-09-04T18:24:11.997Z,64.08
2022-09-04T18:26:51.203Z,65.09
2022-09-04T18:32:09.968Z,65.66
2022-09-04T18:37:06.670Z,65.49
2022-09-04T18:37:25.320Z,66.14
2022-09-04T18:39:41.011Z,66.65
2022-09-04T18:50:22.932Z,66.99
2022-09-04T18:50:39.876Z,67.36
2022-09-04T18:50:48.708Z,67.21
2022-09-04T18:51:30.666Z,68.59
2022-09-04T18:54:47.397Z,68.75
2022-09-04T18:57:49.263Z,69.30
2022-09-04T19:00:41.140Z,69.42
2022-09-04T19:03:27.873Z,70.13
2022-09-04T19:06:12.642Z,70.03
2022-09-04T19:08:51.736Z,71.15
2022-09-04T19:11:32.015Z,71.60
2022-09-04T19:14:19.044Z,71.07
2022-09-04T19:17:19.676Z,72.01
2022-09-04T19:20:07.914Z,71.33
2022-09-04T19:22:48.811Z,70.41
2022-09-04T19:25:34.015Z,70.46
2022-09-04T19:28:34.439Z,69.82
2022-09-04T19:31:31.303Z,70.40
2022-09-04T19:34:17.654Z,70.41
2022-09-04T19:38:13.676Z,68.14
2022-09-04T19:45:57.207Z,68.53
2022-09-04T19:45:59.535Z,69.25
2022-09-04T19:48:00.826Z,69.67
2022-09-04T19:53:31.576Z,69.55
2022-09-04T19:54:08.637Z,69.23
2022-09-04T19:57:32.626Z,68.97
2022-09-04T20:00:42.912Z,69.23
2022-09-04T20:03:56.711Z,69.25
2022-09-04T20:06:50.828Z,69.13
2022-09-04T20:09:49.635Z,69.74
2022-09-04T20:12:48.929Z,69.42
2022-09-04T20:15:31.743Z,70.07
2022-09-04T20:18:40.823Z,70.34
2022-09-04T20:21:18.100Z,69.04
2022-09-04T20:24:13.826Z,71.20
2022-09-04T20:27:24.388Z,69.83
2022-09-04T20:30:13.007Z,70.00
2022-09-04T20:32:56.550Z,70.12
2022-09-04T20:36:03.804Z,69.85
2022-09-04T20:39:12.695Z,70.64
2022-09-04T20:42:18.591Z,71.24
2022-09-04T20:46:11.092Z,71.44
2022-09-04T20:52:51.802Z,71.48
2022-09-04T20:52:52.785Z,71.10
2022-09-04T20:55:18.175Z,71.22
2022-09-04T21:02:34.683Z,71.85
2022-09-04T21:03:09.148Z,71.16
2022-09-04T21:04:55.290Z,70.95
2022-09-04T21:07:54.956Z,71.58
2022-09-04T21:10:37.895Z,71.36
2022-09-04T21:14:06.549Z,71.74
2022-09-04T21:17:29.067Z,72.00
2022-09-04T21:20:26.163Z,72.31
2022-09-04T21:23:31.698Z,72.46
2022-09-04T21:26:16.710Z,72.46
2022-09-04T21:29:10.788Z,72.66
2022-09-04T21:31:59.231Z,72.87
2022-09-04T21:35:15.767Z,73.26
2022-09-04T21:38:05.268Z,72.60
2022-09-04T21:41:19.193Z,72.41
2022-09-04T21:44:11.128Z,72.75
2022-09-04T21:47:45.066Z,72.98
2022-09-04T21:50:49.323Z,72.61
2022-09-04T21:55:26.654Z,72.60
2022-09-04T22:02:28.188Z,73.65
2022-09-04T22:02:37.308Z,72.80
2022-09-04T22:05:39.485Z,74.05
2022-09-04T22:13:06.277Z,74.33
2022-09-04T22:13:33.498Z,74.58
2022-09-04T22:15:06.879Z,75.19
2022-09-04T22:18:48.493Z,75.16
2022-09-04T22:22:12.069Z,75.50
2022-09-04T22:25:12.482Z,75.25
2022-09-04T22:28:29.009Z,75.45
2022-09-04T22:31:24.631Z,76.62
2022-09-04T22:34:42.653Z,76.22
2022-09-04T22:37:58.684Z,76.61
2022-09-04T22:41:17.706Z,76.90
2022-09-04T22:44:14.091Z,76.85
2022-09-04T22:47:27.160Z,76.77
2022-09-04T22:50:50.233Z,75.22
2022-09-04T22:54:05.327Z,76.19
2022-09-04T22:56:59.370Z,76.93
2022-09-04T23:00:11.404Z,75.99
2022-09-04T23:03:47.047Z,76.01
2022-09-04T23:11:25.272Z,76.59
2022-09-04T23:14:00.920Z,75.38
2022-09-04T23:14:08.812Z,75.28
2022-09-04T23:17:09.178Z,75.99
2022-09-04T23:26:31.047Z,76.39
2022-09-04T23:26:49.610Z,75.71
2022-09-04T23:27:01.486Z,76.42
2022-09-04T23:30:25.101Z,77.41
2022-09-04T23:33:37.317Z,77.49
2022-09-04T23:36:57.182Z,77.17
2022-09-04T23:40:10.383Z,77.19
2022-09-04T23:44:00.802Z,77.73
2022-09-04T23:46:55.948Z,78.16
2022-09-04T23:49:46.673Z,78.45
2022-09-04T23:52:48.906Z,77.66
2022-09-04T23:55:48.931Z,77.36
2022-09-04T23:59:38.241Z,77.21
